Time;durP1;ratioP1;P1;durP2;ratioP2;P2;SDS_P1;SDS_P2;PMS_P1;PMS_P2;Temp;Humidity;BMP_temperature;BMP_pressure;BME280_temperature;BME280_humidity;BME280_pressure;Samples;Min_cycle;Max_cycle;Signal;HPM_P1;HPM_P2
2022/02/24 00:00:22;;;;;;;1.95;1.85;;;;;;;3.90;100.00;100953.06;5022832;28;20057;-85
2022/02/24 00:02:50;;;;;;;1.90;1.80;;;;;;;3.71;100.00;100941.50;5032300;28;20127;-85
2022/02/24 00:05:24;;;;;;;1.90;1.80;;;;;;;3.59;100.00;100919.13;5030081;28;20048;-85
2022/02/24 00:07:53;;;;;;;1.70;1.60;;;;;;;3.48;100.00;100909.09;5031368;28;20080;-85
2022/02/24 00:10:26;;;;;;;1.80;1.70;;;;;;;3.69;100.00;100956.25;5031730;28;20065;-85
2022/02/24 00:13:00;;;;;;;1.60;1.50;;;;;;;3.66;100.00;100938.69;5019662;28;20057;-86
2022/02/24 00:15:33;;;;;;;1.83;1.73;;;;;;;3.65;100.00;100947.00;5029401;28;20052;-86
2022/02/24 00:18:06;;;;;;;1.67;1.58;;;;;;;3.64;100.00;100934.59;5027489;28;20064;-85
2022/02/24 00:20:34;;;;;;;1.80;1.70;;;;;;;3.52;100.00;100916.50;5031873;28;20409;-85
2022/02/24 00:23:08;;;;;;;1.90;1.80;;;;;;;3.45;100.00;100913.06;5031935;28;20052;-85
2022/02/24 00:25:36;;;;;;;1.90;1.80;;;;;;;3.51;100.00;100927.50;5023838;28;20057;-85
2022/02/24 00:28:11;;;;;;;2.00;1.90;;;;;;;3.58;100.00;100925.53;5031042;28;20064;-86
2022/02/24 00:30:39;;;;;;;2.00;1.90;;;;;;;3.51;100.00;100916.75;5029200;28;20410;-85
2022/02/24 00:33:07;;;;;;;1.98;1.88;;;;;;;3.60;100.00;100909.16;5027800;28;20049;-84
2022/02/24 00:35:40;;;;;;;2.03;1.92;;;;;;;3.43;100.00;100874.81;5030672;28;20391;-84
2022/02/24 00:38:14;;;;;;;1.90;1.80;;;;;;;3.55;100.00;100896.41;5029192;28;20052;-85
2022/02/24 00:40:42;;;;;;;1.90;1.80;;;;;;;3.57;100.00;100892.41;5027546;28;20489;-85
2022/02/24 00:43:16;;;;;;;2.05;1.95;;;;;;;3.55;100.00;100878.38;5031261;28;20049;-85
2022/02/24 00:45:49;;;;;;;2.08;1.98;;;;;;;3.57;100.00;100884.34;5032275;28;20501;-84
2022/02/24 00:48:22;;;;;;;2.30;2.20;;;;;;;3.39;100.00;100847.53;5030421;28;20045;-85
2022/02/24 00:50:50;;;;;;;2.00;1.90;;;;;;;3.57;100.00;100892.41;5027017;28;20049;-85
2022/02/24 00:53:24;;;;;;;2.15;2.05;;;;;;;3.57;100.00;100875.47;5023332;28;20064;-85
2022/02/24 00:55:52;;;;;;;2.20;2.10;;;;;;;3.57;100.00;100867.38;5028343;28;20038;-84
2022/02/24 00:58:27;;;;;;;2.20;2.10;;;;;;;3.69;100.00;100878.22;5027009;28;20049;-85
2022/02/24 01:01:01;;;;;;;2.30;2.20;;;;;;;3.66;100.00;100875.94;5029665;28;20045;-85
2022/02/24 01:03:29;;;;;;;1.80;1.70;;;;;;;3.71;100.00;100878.78;5031582;28;20064;-85
2022/02/24 01:06:02;;;;;;;2.25;2.15;;;;;;;3.69;100.00;100868.25;5026966;28;20057;-85
2022/02/24 01:08:35;;;;;;;2.15;2.05;;;;;;;3.71;100.00;100866.13;5012763;28;20054;-85
2022/02/24 01:11:09;;;;;;;2.40;2.30;;;;;;;3.67;100.00;100862.25;5030539;28;20506;-85
2022/02/24 01:13:38;;;;;;;2.13;2.03;;;;;;;3.63;100.00;100853.00;5023831;28;20056;-85
2022/02/24 01:16:07;;;;;;;2.20;2.10;;;;;;;3.60;100.00;100850.78;5029036;28;20053;-85
2022/02/24 01:18:40;;;;;;;2.30;2.20;;;;;;;3.56;100.00;100846.91;5030757;28;20056;-85
2022/02/24 01:21:13;;;;;;;2.17;2.08;;;;;;;3.62;100.00;100848.69;5031134;28;20426;-85
2022/02/24 01:23:46;;;;;;;1.98;1.88;;;;;;;3.58;100.00;100844.81;5032282;28;20497;-85
2022/02/24 01:26:20;;;;;;;2.00;1.90;;;;;;;3.56;100.00;100830.75;5030705;28;20052;-85
2022/02/24 01:28:49;;;;;;;2.05;1.95;;;;;;;3.57;100.00;100829.72;5030997;28;20057;-85
2022/02/24 01:31:18;;;;;;;2.40;2.30;;;;;;;3.64;100.00;100827.72;5025588;28;20049;-85
2022/02/24 01:33:52;;;;;;;1.90;1.80;;;;;;;3.65;100.00;100825.88;5031054;28;20049;-85
2022/02/24 01:36:25;;;;;;;2.17;2.08;;;;;;;3.62;100.00;100829.00;5021349;28;20052;-85
2022/02/24 01:38:53;;;;;;;2.17;2.08;;;;;;;3.57;100.00;100824.31;5030822;28;20049;-85
2022/02/24 01:41:26;;;;;;;1.95;1.85;;;;;;;3.50;100.00;100808.28;5024958;28;20054;-85
2022/02/24 01:44:10;;;;;;;2.10;2.00;;;;;;;3.62;100.00;100820.94;5031282;28;20045;-85
2022/02/24 01:46:43;;;;;;;2.30;2.20;;;;;;;3.70;100.00;100817.91;5025317;28;20042;-85
2022/02/24 01:49:12;;;;;;;2.30;2.20;;;;;;;3.63;100.00;100809.13;5027595;28;20147;-85
2022/02/24 01:51:45;;;;;;;2.10;2.00;;;;;;;3.67;100.00;100799.53;5015281;28;20049;-85
2022/02/24 01:54:14;;;;;;;2.10;2.00;;;;;;;3.54;100.00;100795.19;5028491;28;20495;-85
2022/02/24 01:56:47;;;;;;;2.22;2.13;;;;;;;3.47;100.00;100768.38;5024593;28;20482;-85
2022/02/24 01:59:21;;;;;;;2.35;2.25;;;;;;;3.60;100.00;100788.88;5016855;28;20051;-85
2022/02/24 02:01:49;;;;;;;1.98;1.88;;;;;;;3.68;100.00;100779.66;5024385;28;20050;-85
2022/02/24 02:04:22;;;;;;;2.50;2.40;;;;;;;3.55;100.00;100783.38;5032621;28;20049;-85
2022/02/24 02:06:55;;;;;;;2.40;2.30;;;;;;;3.59;100.00;100781.88;5033507;28;20042;-85
2022/02/24 02:09:25;;;;;;;2.20;2.10;;;;;;;3.52;100.00;100773.06;5033820;28;20056;-85
2022/02/24 02:11:53;;;;;;;2.20;2.10;;;;;;;3.43;100.00;100769.09;5021493;28;20406;-85
2022/02/24 02:14:22;;;;;;;2.35;2.25;;;;;;;3.49;100.00;100773.53;5031801;28;20049;-85
2022/02/24 02:16:56;;;;;;;2.42;2.33;;;;;;;3.44;100.00;100765.31;5022282;28;20053;-85
2022/02/24 02:19:25;;;;;;;1.92;1.83;;;;;;;3.40;100.00;100763.09;5031888;28;20049;-85
2022/02/24 02:21:59;;;;;;;2.50;2.40;;;;;;;3.35;100.00;100759.47;5033767;28;20402;-85
2022/02/24 02:24:28;;;;;;;2.30;2.20;;;;;;;3.26;100.00;100756.28;5033165;28;20053;-85
2022/02/24 02:27:02;;;;;;;2.50;2.40;;;;;;;3.26;100.00;100752.75;5033705;28;20050;-85
2022/02/24 02:29:35;;;;;;;2.72;2.53;;;;;;;3.32;100.00;100765.31;5027451;28;20041;-85
2022/02/24 02:32:04;;;;;;;2.63;2.47;;;;;;;3.36;100.00;100761.91;5022832;28;20058;-84
2022/02/24 02:34:37;;;;;;;2.95;2.75;;;;;;;3.46;100.00;100750.59;5029780;28;20049;-85
2022/02/24 02:37:12;;;;;;;3.10;2.90;;;;;;;3.33;100.00;100722.03;5030267;28;20042;-84
2022/02/24 02:39:45;;;;;;;3.00;2.80;;;;;;;3.56;100.00;100739.25;5028761;28;20053;-85
2022/02/24 02:42:18;;;;;;;3.08;2.88;;;;;;;3.42;100.00;100695.59;5031630;28;20064;-85
2022/02/24 02:44:46;;;;;;;2.97;2.78;;;;;;;3.73;100.00;100732.16;5033301;28;20386;-85
2022/02/24 02:47:19;;;;;;;3.13;2.92;;;;;;;3.71;100.00;100718.09;5033194;28;20151;-85
2022/02/24 02:49:52;;;;;;;2.88;2.67;;;;;;;3.94;100.00;100732.63;5033359;28;20045;-84
2022/02/24 02:52:22;;;;;;;2.90;2.70;;;;;;;4.04;100.00;100738.22;5034608;28;20045;-85
2022/02/24 02:55:01;;;;;;;2.50;2.40;;;;;;;4.34;100.00;100720.31;5031953;28;20817;-86
2022/02/24 02:57:35;;;;;;;2.90;2.70;;;;;;;4.38;100.00;100705.31;5033994;28;20044;-85
2022/02/24 03:00:11;;;;;;;2.90;2.70;;;;;;;4.57;100.00;100706.78;5033407;28;20049;-85
2022/02/24 03:02:44;;;;;;;2.63;2.50;;;;;;;4.63;100.00;100704.16;5033034;28;20052;-84
2022/02/24 03:05:13;;;;;;;2.65;2.50;;;;;;;4.63;100.00;100696.06;5032687;28;20076;-84
2022/02/24 03:07:42;;;;;;;2.25;2.15;;;;;;;4.67;100.00;100708.00;5033544;28;20048;-85
2022/02/24 03:10:16;;;;;;;2.30;2.20;;;;;;;4.60;100.00;100710.88;5031654;28;20809;-85
2022/02/24 03:12:49;;;;;;;2.20;2.10;;;;;;;4.70;100.00;100697.56;5032551;28;20049;-84
2022/02/24 03:15:22;;;;;;;2.40;2.30;;;;;;;4.76;100.00;100696.63;5046191;28;20049;-85
2022/02/24 03:17:51;;;;;;;2.42;2.33;;;;;;;4.66;100.00;100679.44;5029784;28;20041;-85
2022/02/24 03:20:24;;;;;;;1.83;1.73;;;;;;;4.80;100.00;100683.47;5032436;28;20498;-85
2022/02/24 03:22:59;;;;;;;2.00;1.90;;;;;;;4.79;100.00;100681.03;5032402;28;20045;-85
2022/02/24 03:25:33;;;;;;;2.10;2.00;;;;;;;4.74;100.00;100671.78;5031868;28;20054;-84
2022/02/24 03:28:06;;;;;;;1.90;1.80;;;;;;;4.82;100.00;100680.53;5033688;28;20052;-85
2022/02/24 03:30:35;;;;;;;1.60;1.50;;;;;;;4.84;100.00;100671.13;5032978;28;20045;-84
2022/02/24 03:33:09;;;;;;;2.10;2.00;;;;;;;4.83;100.00;100674.09;5027818;28;20049;-85
2022/02/24 03:35:37;;;;;;;1.90;1.80;;;;;;;4.83;100.00;100674.88;5032210;28;20042;-84
2022/02/24 03:38:12;;;;;;;1.85;1.75;;;;;;;4.86;100.00;100668.19;5021922;28;20058;-85
2022/02/24 03:40:40;;;;;;;1.90;1.80;;;;;;;4.81;100.00;100662.75;5032329;28;20057;-84
2022/02/24 03:43:08;;;;;;;2.00;1.90;;;;;;;4.76;100.00;100658.88;5033493;28;20041;-84
2022/02/24 03:45:36;;;;;;;1.70;1.60;;;;;;;4.86;100.00;100671.72;5029733;28;20057;-84
2022/02/24 03:48:09;;;;;;;1.60;1.50;;;;;;;4.89;100.00;100665.03;5023788;28;20057;-84
2022/02/24 03:50:37;;;;;;;1.40;1.40;;;;;;;4.86;100.00;100655.56;5029585;28;20378;-85
2022/02/24 03:53:11;;;;;;;1.83;1.73;;;;;;;4.89;100.00;100654.25;5030002;28;20057;-84
2022/02/24 03:55:44;;;;;;;1.60;1.50;;;;;;;4.78;100.00;100642.47;5033463;28;20042;-85
2022/02/24 03:58:18;;;;;;;1.63;1.52;;;;;;;4.92;100.00;100653.75;5031724;28;20656;-84
2022/02/24 04:00:46;;;;;;;1.33;1.33;;;;;;;4.91;100.00;100654.81;5032393;28;20049;-85
2022/02/24 04:03:19;;;;;;;1.20;1.20;;;;;;;4.97;100.00;100643.03;5030832;28;20053;-84
2022/02/24 04:05:53;;;;;;;1.27;1.27;;;;;;;4.95;100.00;100650.56;5031782;28;20067;-85
2022/02/24 04:08:27;;;;;;;1.60;1.50;;;;;;;4.89;100.00;100646.97;5031570;28;20810;-84
2022/02/24 04:11:01;;;;;;;1.30;1.30;;;;;;;4.80;100.00;100615.25;5031777;28;20053;-84
2022/02/24 04:13:29;;;;;;;1.60;1.50;;;;;;;4.86;100.00;100641.25;5032256;28;20053;-84
2022/02/24 04:16:03;;;;;;;1.48;1.40;;;;;;;4.88;100.00;100633.75;5032200;28;20046;-84
2022/02/24 04:18:31;;;;;;;1.50;1.40;;;;;;;4.95;100.00;100637.09;5032631;28;20042;-84
2022/02/24 04:21:04;;;;;;;1.25;1.25;;;;;;;4.97;100.00;100634.16;5028807;28;20053;-84
2022/02/24 04:23:39;;;;;;;1.27;1.27;;;;;;;5.02;100.00;100639.63;5021047;28;20429;-84
2022/02/24 04:26:07;;;;;;;1.45;1.40;;;;;;;4.99;100.00;100637.44;5032014;28;20072;-85
2022/02/24 04:28:35;;;;;;;1.55;1.45;;;;;;;4.91;100.00;100633.25;5031832;28;20049;-84
2022/02/24 04:31:08;;;;;;;1.30;1.30;;;;;;;4.90;100.00;100626.22;5033952;28;20686;-85
2022/02/24 04:33:37;;;;;;;1.30;1.30;;;;;;;4.95;100.00;100637.09;5026546;28;20045;-84
2022/02/24 04:36:10;;;;;;;1.30;1.30;;;;;;;4.89;100.00;100633.50;5029860;28;20587;-85
2022/02/24 04:38:44;;;;;;;1.10;1.10;;;;;;;4.87;100.00;100629.41;5031075;28;20057;-85
2022/02/24 04:41:13;;;;;;;1.42;1.38;;;;;;;4.92;100.00;100630.31;5031638;28;20049;-84
2022/02/24 04:43:41;;;;;;;1.20;1.20;;;;;;;4.93;100.00;100623.03;5031018;28;20053;-84
2022/02/24 04:46:09;;;;;;;1.60;1.50;;;;;;;4.86;100.00;100614.28;5030016;28;20080;-84
2022/02/24 04:48:43;;;;;;;1.60;1.50;;;;;;;4.84;100.00;100611.81;5031123;28;20049;-84
2022/02/24 04:51:11;;;;;;;1.50;1.40;;;;;;;4.88;100.00;100607.56;5023946;28;20057;-84
2022/02/24 04:53:39;;;;;;;1.30;1.30;;;;;;;4.92;100.00;100611.41;5026885;28;20041;-85
2022/02/24 04:56:13;;;;;;;1.30;1.30;;;;;;;4.87;100.00;100607.81;5029097;28;20461;-84
2022/02/24 04:58:47;;;;;;;1.48;1.38;;;;;;;4.81;100.00;100592.63;5032069;28;20057;-84
2022/02/24 05:01:20;;;;;;;1.23;1.23;;;;;;;4.87;100.00;100595.16;5031324;28;20050;-84
2022/02/24 05:03:53;;;;;;;1.45;1.38;;;;;;;4.82;100.00;100592.38;5030232;28;20052;-84
2022/02/24 05:06:26;;;;;;;1.17;1.17;;;;;;;4.81;100.00;100596.13;5029859;28;20537;-84
2022/02/24 05:08:54;;;;;;;1.42;1.38;;;;;;;4.83;100.00;100591.31;5018920;28;20061;-84
2022/02/24 05:11:29;;;;;;;1.60;1.50;;;;;;;4.76;100.00;100591.50;5031529;28;20379;-84
2022/02/24 05:14:02;;;;;;;1.63;1.52;;;;;;;4.72;100.00;100592.19;5031252;28;20050;-84
2022/02/24 05:16:30;;;;;;;1.65;1.55;;;;;;;4.74;100.00;100590.09;5031134;28;20045;-85
2022/02/24 05:19:03;;;;;;;1.55;1.45;;;;;;;4.75;100.00;100580.91;5016785;28;20067;-84
2022/02/24 05:21:37;;;;;;;1.50;1.40;;;;;;;4.74;100.00;100584.69;5016659;28;20052;-84
2022/02/24 05:24:10;;;;;;;1.35;1.33;;;;;;;4.70;100.00;100572.75;5030842;28;20437;-84
2022/02/24 05:26:40;;;;;;;1.23;1.23;;;;;;;4.66;100.00;100577.81;5032360;28;20045;-84
2022/02/24 05:29:13;;;;;;;1.60;1.50;;;;;;;4.71;100.00;100579.78;5023686;28;20069;-84
2022/02/24 05:31:46;;;;;;;1.65;1.55;;;;;;;4.65;100.00;100575.34;5030834;28;20049;-84
2022/02/24 05:34:20;;;;;;;1.55;1.45;;;;;;;4.75;100.00;100579.06;5032247;28;20053;-84
2022/02/24 05:36:53;;;;;;;1.60;1.50;;;;;;;4.71;100.00;100568.97;5034816;28;20060;-84
2022/02/24 05:39:26;;;;;;;1.58;1.48;;;;;;;4.55;100.00;100554.44;5033483;28;20060;-84
2022/02/24 05:42:01;;;;;;;1.42;1.40;;;;;;;4.62;100.00;100563.19;5035007;28;20052;-84
2022/02/24 05:44:34;;;;;;;1.60;1.50;;;;;;;4.68;100.00;100566.78;5035946;28;20706;-85
2022/02/24 05:47:07;;;;;;;1.30;1.30;;;;;;;4.67;100.00;100560.59;5030175;28;20045;-84
2022/02/24 05:49:41;;;;;;;1.60;1.50;;;;;;;4.70;100.00;100548.50;5034806;28;20052;-84
2022/02/24 05:52:14;;;;;;;1.80;1.70;;;;;;;4.65;100.00;100540.31;5031928;28;20521;-85
2022/02/24 05:54:42;;;;;;;1.90;1.80;;;;;;;4.69;100.00;100538.78;5026272;28;20109;-84
2022/02/24 05:57:12;;;;;;;1.75;1.65;;;;;;;4.64;100.00;100533.28;5034774;28;20053;-84
2022/02/24 05:59:42;;;;;;;1.88;1.77;;;;;;;4.72;100.00;100544.50;5034474;28;20053;-84
2022/02/24 06:02:15;;;;;;;1.60;1.50;;;;;;;4.65;100.00;100533.03;5034479;28;20073;-84
2022/02/24 06:04:48;;;;;;;1.60;1.50;;;;;;;4.62;100.00;100519.25;5035467;28;20049;-84
2022/02/24 06:07:21;;;;;;;1.67;1.58;;;;;;;4.58;100.00;100527.84;5027526;28;20410;-84
2022/02/24 06:09:55;;;;;;;1.60;1.50;;;;;;;4.65;100.00;100530.34;5034292;28;20045;-84
2022/02/24 06:12:29;;;;;;;1.90;1.80;;;;;;;4.75;100.00;100530.53;5033971;28;20056;-84
2022/02/24 06:14:57;;;;;;;1.80;1.70;;;;;;;4.74;100.00;100520.00;5019666;28;20049;-85
2022/02/24 06:17:25;;;;;;;1.90;1.80;;;;;;;4.71;100.00;100525.84;5029290;28;20057;-84
2022/02/24 06:19:58;;;;;;;1.70;1.60;;;;;;;4.73;100.00;100518.34;5022992;28;20398;-84
2022/02/24 06:22:31;;;;;;;1.83;1.73;;;;;;;4.78;100.00;100526.53;5034208;28;20516;-84
2022/02/24 06:25:05;;;;;;;1.80;1.70;;;;;;;4.80;100.00;100507.41;5023900;28;20045;-84
2022/02/24 06:27:35;;;;;;;1.70;1.60;;;;;;;4.77;100.00;100514.09;5033297;28;20522;-84
2022/02/24 06:30:09;;;;;;;1.70;1.60;;;;;;;4.82;100.00;100505.28;5034371;28;20054;-84
2022/02/24 06:32:37;;;;;;;1.80;1.70;;;;;;;4.92;100.00;100508.16;5022589;28;20552;-84
2022/02/24 06:35:12;;;;;;;1.77;1.67;;;;;;;4.93;100.00;100507.09;5031207;28;20057;-84
2022/02/24 06:37:42;;;;;;;1.60;1.50;;;;;;;4.88;100.00;100502.41;5027000;28;20386;-84
2022/02/24 06:40:15;;;;;;;1.80;1.70;;;;;;;4.84;100.00;100509.34;5032631;28;20058;-84
2022/02/24 06:42:50;;;;;;;1.80;1.70;;;;;;;4.94;100.00;100500.59;5029778;28;20052;-84
2022/02/24 06:45:23;;;;;;;1.90;1.80;;;;;;;5.04;100.00;100498.09;5019602;28;20060;-85
2022/02/24 06:47:51;;;;;;;1.50;1.40;;;;;;;4.97;100.00;100499.31;5032715;28;20052;-84
2022/02/24 06:50:20;;;;;;;1.70;1.60;;;;;;;4.96;100.00;100494.97;5027978;28;20042;-84
2022/02/24 06:52:53;;;;;;;1.42;1.38;;;;;;;5.04;100.00;100502.63;5033717;28;20490;-84
2022/02/24 06:55:27;;;;;;;1.70;1.60;;;;;;;4.98;100.00;100488.25;5031533;28;20052;-85
2022/02/24 06:58:02;;;;;;;1.60;1.50;;;;;;;5.08;100.00;100487.59;5019993;28;20056;-84
2022/02/24 07:00:30;;;;;;;1.60;1.50;;;;;;;4.99;100.00;100478.31;5030009;28;20793;-84
2022/02/24 07:03:03;;;;;;;1.60;1.50;;;;;;;5.03;100.00;100484.84;5041208;28;20056;-84
2022/02/24 07:05:31;;;;;;;1.40;1.40;;;;;;;5.01;100.00;100478.88;5036247;28;20072;-83
2022/02/24 07:08:05;;;;;;;1.30;1.30;;;;;;;5.00;100.00;100474.53;5036922;28;20053;-83
2022/02/24 07:10:38;;;;;;;1.52;1.42;;;;;;;4.98;100.00;100472.09;5025841;28;20049;-84
2022/02/24 07:13:12;;;;;;;1.50;1.40;;;;;;;4.95;100.00;100451.00;5021231;28;20050;-83
2022/02/24 07:15:40;;;;;;;1.70;1.60;;;;;;;5.10;100.00;100469.28;5032169;28;20050;-83
2022/02/24 07:18:13;;;;;;;1.48;1.40;;;;;;;5.13;100.00;100468.78;5027224;28;20052;-84
2022/02/24 07:20:41;;;;;;;1.42;1.40;;;;;;;5.17;100.00;100461.84;5034004;28;20048;-83
2022/02/24 07:23:15;;;;;;;1.30;1.30;;;;;;;5.18;100.00;100457.25;5026497;28;20049;-83
2022/02/24 07:25:43;;;;;;;1.52;1.42;;;;;;;5.21;100.00;100448.69;5033672;28;20597;-84
2022/02/24 07:28:17;;;;;;;1.67;1.58;;;;;;;5.28;100.00;100449.31;5032698;28;20054;-83
2022/02/24 07:30:51;;;;;;;1.60;1.50;;;;;;;5.34;100.00;100448.28;5029301;28;20046;-84
2022/02/24 07:33:24;;;;;;;1.48;1.40;;;;;;;5.35;100.00;100439.13;5039617;28;20394;-84
2022/02/24 07:35:57;;;;;;;1.45;1.38;;;;;;;5.35;100.00;100449.13;5031889;28;20050;-85
2022/02/24 07:38:30;;;;;;;1.52;1.42;;;;;;;5.38;100.00;100438.63;5032720;28;20062;-84
2022/02/24 07:41:03;;;;;;;1.42;1.40;;;;;;;5.31;100.00;100426.41;5024646;28;20488;-85
2022/02/24 07:43:37;;;;;;;1.83;1.73;;;;;;;5.44;100.00;100436.78;5020202;28;20057;-84
2022/02/24 07:46:10;;;;;;;1.88;1.77;;;;;;;5.53;100.00;100443.41;5022547;28;20680;-84
2022/02/24 07:48:39;;;;;;;1.52;1.42;;;;;;;5.57;100.00;100438.31;5020218;28;20517;-83
2022/02/24 07:51:07;;;;;;;1.60;1.50;;;;;;;5.51;100.00;100433.91;5021840;28;20499;-85
2022/02/24 07:53:40;;;;;;;1.70;1.60;;;;;;;5.48;100.00;100437.94;5018756;28;21417;-84
2022/02/24 07:56:08;;;;;;;1.70;1.60;;;;;;;5.41;100.00;100416.56;5020327;28;20064;-83
2022/02/24 07:58:43;;;;;;;1.70;1.60;;;;;;;5.53;100.00;100429.91;5020928;28;20065;-84
2022/02/24 08:01:17;;;;;;;1.50;1.40;;;;;;;5.61;100.00;100432.16;5018894;28;20060;-84
2022/02/24 08:03:45;;;;;;;1.50;1.40;;;;;;;5.55;100.00;100429.66;5022192;28;20401;-84
2022/02/24 08:06:18;;;;;;;1.40;1.40;;;;;;;5.54;100.00;100412.66;5014255;28;20061;-84
2022/02/24 08:08:52;;;;;;;1.50;1.40;;;;;;;5.57;100.00;100419.44;5011523;28;20533;-84
2022/02/24 08:11:20;;;;;;;1.70;1.60;;;;;;;5.70;100.00;100412.81;5011596;28;20057;-84
2022/02/24 08:13:54;;;;;;;1.70;1.60;;;;;;;5.64;100.00;100416.53;5014791;28;20061;-84
2022/02/24 08:16:28;;;;;;;1.63;1.52;;;;;;;5.68;100.00;100420.34;5012822;28;20068;-84
2022/02/24 08:19:01;;;;;;;1.73;1.63;;;;;;;5.68;100.00;100393.34;5015521;28;20053;-84
2022/02/24 08:21:34;;;;;;;1.77;1.67;;;;;;;5.77;100.00;100408.84;5012612;28;20068;-84
2022/02/24 08:24:07;;;;;;;1.60;1.50;;;;;;;5.69;100.00;100398.50;5015291;28;20037;-83
2022/02/24 08:26:40;;;;;;;1.73;1.63;;;;;;;5.83;100.00;100412.41;5018355;28;20049;-84
2022/02/24 08:29:15;;;;;;;1.60;1.50;;;;;;;5.98;100.00;100402.84;5024759;28;20057;-85
2022/02/24 08:31:48;;;;;;;1.70;1.60;;;;;;;5.96;100.00;100401.19;5008743;28;20068;-84
2022/02/24 08:34:21;;;;;;;1.50;1.40;;;;;;;5.99;100.00;100385.56;5009638;28;20075;-83
2022/02/24 08:36:55;;;;;;;1.50;1.40;;;;;;;5.99;100.00;100394.47;5010232;28;20061;-85
2022/02/24 08:39:24;;;;;;;1.70;1.60;;;;;;;6.00;100.00;100387.22;5011322;28;20050;-84
2022/02/24 08:41:57;;;;;;;1.50;1.40;;;;;;;6.01;100.00;100381.56;5013083;28;20049;-84
2022/02/24 08:44:27;;;;;;;1.30;1.30;;;;;;;6.02;100.00;100375.09;5010623;28;20057;-83
2022/02/24 08:47:00;;;;;;;1.52;1.42;;;;;;;6.04;100.00;100364.81;5008262;28;20054;-84
2022/02/24 08:49:33;;;;;;;1.20;1.20;;;;;;;6.09;100.00;100378.38;5006915;28;20068;-84
2022/02/24 08:52:07;;;;;;;1.50;1.40;;;;;;;6.07;100.00;100356.19;5009621;28;20056;-83
2022/02/24 08:54:40;;;;;;;1.20;1.20;;;;;;;6.22;100.00;100354.69;5009727;28;20064;-84
2022/02/24 08:57:14;;;;;;;1.20;1.20;;;;;;;6.27;100.00;100330.41;5011282;28;20064;-84
2022/02/24 08:59:48;;;;;;;1.17;1.17;;;;;;;6.35;100.00;100331.81;5005087;28;20058;-84
2022/02/24 09:02:17;;;;;;;1.58;1.48;;;;;;;6.41;100.00;100328.88;5010666;28;20064;-84
2022/02/24 09:04:50;;;;;;;1.30;1.30;;;;;;;6.42;100.00;100333.22;5010190;28;20049;-84
2022/02/24 09:07:18;;;;;;;1.23;1.23;;;;;;;6.57;100.00;100321.69;5005173;28;20067;-83
2022/02/24 09:09:51;;;;;;;1.30;1.30;;;;;;;6.53;100.00;100323.28;5013797;28;20054;-83
2022/02/24 09:12:24;;;;;;;1.25;1.25;;;;;;;6.49;100.00;100314.09;5014184;28;20548;-83
2022/02/24 09:14:59;;;;;;;1.30;1.30;;;;;;;6.56;100.00;100316.53;5014919;28;21630;-83
2022/02/24 09:17:28;;;;;;;1.30;1.30;;;;;;;6.56;100.00;100317.34;5015982;28;20060;-83
2022/02/24 09:19:57;;;;;;;1.23;1.23;;;;;;;6.75;100.00;100314.19;5012210;28;20053;-83
2022/02/24 09:22:30;;;;;;;1.20;1.20;;;;;;;6.67;100.00;100306.59;5009408;28;20053;-84
2022/02/24 09:25:04;;;;;;;1.10;1.10;;;;;;;6.54;100.00;100297.06;5013672;28;20064;-83
2022/02/24 09:27:37;;;;;;;1.10;1.10;;;;;;;6.63;100.00;100287.38;5015017;28;20045;-84
2022/02/24 09:30:12;;;;;;;1.10;1.10;;;;;;;6.60;100.00;100283.31;5014675;28;20442;-84
2022/02/24 09:32:40;;;;;;;1.00;1.00;;;;;;;6.50;100.00;100288.66;5020232;28;20424;-84
2022/02/24 09:35:14;;;;;;;1.10;1.10;;;;;;;6.53;100.00;100282.75;5017613;28;20064;-82
2022/02/24 09:37:48;;;;;;;1.17;1.17;;;;;;;6.67;100.00;100261.44;5015036;28;20049;-84
2022/02/24 09:40:22;;;;;;;1.10;1.10;;;;;;;6.72;100.00;100268.75;5014590;28;20049;-83
2022/02/24 09:42:55;;;;;;;1.00;1.00;;;;;;;6.67;100.00;100268.72;5008512;28;20056;-83
2022/02/24 09:45:29;;;;;;;1.20;1.20;;;;;;;6.77;100.00;100263.38;5012291;28;20049;-82
2022/02/24 09:48:06;;;;;;;1.20;1.20;;;;;;;6.83;100.00;100256.91;5014330;28;20060;-83
2022/02/24 09:50:39;;;;;;;1.02;1.02;;;;;;;6.90;100.00;100243.13;5015384;28;20060;-84
2022/02/24 09:53:07;;;;;;;1.10;1.10;;;;;;;6.86;100.00;100242.84;5014498;28;20054;-84
2022/02/24 09:55:35;;;;;;;1.10;1.10;;;;;;;6.87;100.00;100238.25;5012375;28;20136;-84
2022/02/24 09:58:04;;;;;;;1.00;1.00;;;;;;;6.93;100.00;100229.91;5011534;28;20065;-83
2022/02/24 10:00:38;;;;;;;1.00;1.00;;;;;;;6.98;100.00;100234.50;5011824;28;20722;-83
2022/02/24 10:03:25;;;;;;;0.90;0.90;;;;;;;6.99;100.00;100225.31;5013657;28;20056;-84
2022/02/24 10:05:59;;;;;;;;;;;;;;;6.98;100.00;100221.78;5011353;28;20057;-83
2022/02/24 10:08:33;;;;;;;1.00;1.00;;;;;;;7.06;100.00;100211.53;5008382;28;20420;-84
2022/02/24 10:11:17;;;;;;;0.90;0.90;;;;;;;6.93;100.00;100208.25;5010543;28;20049;-82
2022/02/24 10:13:59;;;;;;;0.88;0.88;;;;;;;6.92;100.00;100197.69;5017357;28;20053;-83
2022/02/24 10:16:29;;;;;;;0.90;0.90;;;;;;;6.95;100.00;100200.66;5014604;28;20064;-84
2022/02/24 10:19:11;;;;;;;1.00;1.00;;;;;;;7.10;100.00;100190.97;5016943;28;20060;-82
2022/02/24 10:22:14;;;;;;;1.00;1.00;;;;;;;7.05;100.00;100183.63;5011089;28;20073;-84
2022/02/24 10:24:44;;;;;;;0.90;0.90;;;;;;;7.20;100.00;100166.63;5010985;28;20061;-83
2022/02/24 10:27:19;;;;;;;0.90;0.90;;;;;;;7.38;100.00;100167.97;5013074;28;20057;-82
2022/02/24 10:30:00;;;;;;;1.00;1.00;;;;;;;7.59;100.00;100144.38;5015399;28;20057;-84
2022/02/24 10:32:35;;;;;;;1.00;1.00;;;;;;;7.59;100.00;100149.00;5011338;28;20053;-82
2022/02/24 10:35:24;;;;;;;0.95;0.95;;;;;;;7.77;100.00;100134.06;4999938;28;20057;-83
2022/02/24 10:38:04;;;;;;;0.80;0.80;;;;;;;7.75;100.00;100128.94;5012993;28;20053;-81
2022/02/24 10:40:40;;;;;;;0.90;0.90;;;;;;;7.90;100.00;100122.66;5012983;28;20056;-82
2022/02/24 10:43:18;;;;;;;0.80;0.80;;;;;;;7.98;100.00;100108.56;5012711;28;20053;-83
2022/02/24 10:46:00;;;;;;;0.80;0.80;;;;;;;8.07;100.00;100097.16;5012354;28;20057;-81
2022/02/24 10:48:51;;;;;;;0.80;0.80;;;;;;;7.88;100.00;100088.81;5011609;28;20053;-82
2022/02/24 10:51:25;;;;;;;0.63;0.63;;;;;;;7.73;100.00;100087.75;5012219;28;20057;-81
2022/02/24 10:54:00;;;;;;;0.70;0.70;;;;;;;7.78;100.00;100076.91;5017575;28;20064;-82
2022/02/24 10:56:35;;;;;;;0.80;0.80;;;;;;;8.02;100.00;100080.91;5012640;28;20041;-81
2022/02/24 10:59:09;;;;;;;0.80;0.80;;;;;;;8.01;100.00;100061.13;5011863;28;20057;-82
2022/02/24 11:01:42;;;;;;;0.70;0.70;;;;;;;7.83;100.00;100063.34;5011254;28;20053;-81
2022/02/24 11:04:19;;;;;;;0.75;0.75;;;;;;;8.00;100.00;100065.72;5014675;28;20049;-83
2022/02/24 11:06:53;;;;;;;0.70;0.70;;;;;;;7.94;100.00;100047.88;5009367;28;20715;-82
2022/02/24 11:09:21;;;;;;;0.68;0.68;;;;;;;7.91;100.00;100048.44;5016015;28;20069;-81
2022/02/24 11:11:51;;;;;;;0.60;0.60;;;;;;;7.95;100.00;100032.41;5013468;28;20057;-82
2022/02/24 11:14:25;;;;;;;0.70;0.70;;;;;;;7.99;100.00;100037.00;5011738;28;20057;-81
2022/02/24 11:16:53;;;;;;;0.60;0.60;;;;;;;8.02;100.00;100032.91;5013930;28;20049;-82
2022/02/24 11:19:29;;;;;;;0.60;0.60;;;;;;;8.14;100.00;100046.94;5016820;28;20461;-81
2022/02/24 11:22:02;;;;;;;0.60;0.60;;;;;;;8.28;100.00;100036.31;5012455;28;20052;-83
2022/02/24 11:24:36;;;;;;;0.65;0.65;;;;;;;8.29;100.00;100020.88;5014044;28;20060;-81
2022/02/24 11:27:15;;;;;;;0.60;0.60;;;;;;;8.00;100.00;100008.81;5017175;28;20902;-81
2022/02/24 11:29:54;;;;;;;0.50;0.50;;;;;;;8.13;100.00;100014.72;5008932;28;20045;-82
2022/02/24 11:32:28;;;;;;;0.50;0.50;;;;;;;8.27;100.00;100015.72;5010697;28;20061;-82
2022/02/24 11:35:07;;;;;;;0.60;0.60;;;;;;;8.21;100.00;99988.94;5014661;28;20057;-82
2022/02/24 11:37:37;;;;;;;0.60;0.60;;;;;;;8.13;100.00;99988.44;5015633;28;20061;-82
2022/02/24 11:40:19;;;;;;;0.60;0.60;;;;;;;8.23;100.00;99993.00;5016494;28;20084;-82
2022/02/24 11:43:03;;;;;;;0.50;0.50;;;;;;;8.23;100.00;99973.19;4987564;28;20053;-81
2022/02/24 11:45:38;;;;;;;0.52;0.52;;;;;;;8.23;100.00;99959.63;5007606;28;20053;-82
2022/02/24 11:48:08;;;;;;;0.50;0.50;;;;;;;8.24;100.00;99948.50;5010355;28;20069;-82
2022/02/24 11:50:45;;;;;;;0.60;0.60;;;;;;;8.38;100.00;99945.97;5012428;28;20839;-82